sensor_id;sensor_type;location;lat;lon;timestamp;P1;durP1;ratioP1;P2;durP2;ratioP2
4646;SDS011;2336;47.822;7.564;2023-03-01T00:00:39;20.90;;;18.02;;
4646;SDS011;2336;47.822;7.564;2023-03-01T00:03:06;24.90;;;18.27;;
4646;SDS011;2336;47.822;7.564;2023-03-01T00:05:33;24.23;;;18.75;;
4646;SDS011;2336;47.822;7.564;2023-03-01T00:07:59;21.80;;;17.83;;
4646;SDS011;2336;47.822;7.564;2023-03-01T00:10:26;19.25;;;16.75;;
4646;SDS011;2336;47.822;7.564;2023-03-01T00:12:53;22.17;;;17.98;;
4646;SDS011;2336;47.822;7.564;2023-03-01T00:15:21;22.58;;;17.67;;
4646;SDS011;2336;47.822;7.564;2023-03-01T00:17:49;23.35;;;18.25;;
4646;SDS011;2336;47.822;7.564;2023-03-01T00:20:16;20.13;;;17.08;;
4646;SDS011;2336;47.822;7.564;2023-03-01T00:22:43;19.77;;;17.23;;
4646;SDS011;2336;47.822;7.564;2023-03-01T00:25:09;20.95;;;17.08;;
4646;SDS011;2336;47.822;7.564;2023-03-01T00:27:36;21.67;;;17.70;;
4646;SDS011;2336;47.822;7.564;2023-03-01T00:30:03;21.17;;;16.73;;
4646;SDS011;2336;47.822;7.564;2023-03-01T00:32:30;21.58;;;17.17;;
4646;SDS011;2336;47.822;7.564;2023-03-01T00:34:58;20.00;;;16.10;;
4646;SDS011;2336;47.822;7.564;2023-03-01T00:37:25;21.75;;;17.27;;
4646;SDS011;2336;47.822;7.564;2023-03-01T00:39:52;23.65;;;18.40;;
4646;SDS011;2336;47.822;7.564;2023-03-01T00:42:18;21.70;;;16.65;;
4646;SDS011;2336;47.822;7.564;2023-03-01T00:44:45;19.15;;;16.35;;
4646;SDS011;2336;47.822;7.564;2023-03-01T00:47:12;23.60;;;19.20;;
4646;SDS011;2336;47.822;7.564;2023-03-01T00:49:38;20.88;;;17.40;;
4646;SDS011;2336;47.822;7.564;2023-03-01T00:52:07;21.08;;;16.95;;
4646;SDS011;2336;47.822;7.564;2023-03-01T00:54:33;22.08;;;17.00;;
4646;SDS011;2336;47.822;7.564;2023-03-01T00:57:00;21.40;;;16.15;;
4646;SDS011;2336;47.822;7.564;2023-03-01T00:59:27;22.25;;;16.55;;
4646;SDS011;2336;47.822;7.564;2023-03-01T01:01:54;21.88;;;16.90;;
4646;SDS011;2336;47.822;7.564;2023-03-01T01:04:20;19.05;;;16.25;;
4646;SDS011;2336;47.822;7.564;2023-03-01T01:06:47;18.02;;;15.80;;
4646;SDS011;2336;47.822;7.564;2023-03-01T01:09:16;16.95;;;14.82;;
4646;SDS011;2336;47.822;7.564;2023-03-01T01:11:43;18.33;;;15.25;;
4646;SDS011;2336;47.822;7.564;2023-03-01T01:14:11;19.50;;;15.80;;
4646;SDS011;2336;47.822;7.564;2023-03-01T01:16:38;17.35;;;15.35;;
4646;SDS011;2336;47.822;7.564;2023-03-01T01:19:05;17.55;;;14.95;;
4646;SDS011;2336;47.822;7.564;2023-03-01T01:21:32;19.30;;;15.38;;
4646;SDS011;2336;47.822;7.564;2023-03-01T01:23:59;18.38;;;15.23;;
4646;SDS011;2336;47.822;7.564;2023-03-01T01:26:28;17.60;;;14.20;;
4646;SDS011;2336;47.822;7.564;2023-03-01T01:28:56;19.00;;;15.80;;
4646;SDS011;2336;47.822;7.564;2023-03-01T01:31:24;18.02;;;15.63;;
4646;SDS011;2336;47.822;7.564;2023-03-01T01:33:51;18.00;;;14.73;;
4646;SDS011;2336;47.822;7.564;2023-03-01T01:36:19;24.48;;;15.65;;
4646;SDS011;2336;47.822;7.564;2023-03-01T01:38:46;15.88;;;14.10;;
4646;SDS011;2336;47.822;7.564;2023-03-01T01:41:13;17.35;;;15.05;;
4646;SDS011;2336;47.822;7.564;2023-03-01T01:43:43;17.13;;;14.48;;
4646;SDS011;2336;47.822;7.564;2023-03-01T01:46:15;16.05;;;14.45;;
4646;SDS011;2336;47.822;7.564;2023-03-01T01:48:48;17.58;;;15.18;;
4646;SDS011;2336;47.822;7.564;2023-03-01T01:51:24;17.30;;;14.32;;
4646;SDS011;2336;47.822;7.564;2023-03-01T01:53:56;20.17;;;15.90;;
4646;SDS011;2336;47.822;7.564;2023-03-01T01:56:26;17.17;;;14.90;;
4646;SDS011;2336;47.822;7.564;2023-03-01T01:58:56;21.02;;;15.50;;
4646;SDS011;2336;47.822;7.564;2023-03-01T02:01:23;20.35;;;15.80;;
4646;SDS011;2336;47.822;7.564;2023-03-01T02:03:50;18.52;;;15.18;;
4646;SDS011;2336;47.822;7.564;2023-03-01T02:06:19;18.58;;;15.77;;
4646;SDS011;2336;47.822;7.564;2023-03-01T02:08:49;18.35;;;15.13;;
4646;SDS011;2336;47.822;7.564;2023-03-01T02:11:18;18.63;;;15.32;;
4646;SDS011;2336;47.822;7.564;2023-03-01T02:13:46;19.40;;;15.55;;
4646;SDS011;2336;47.822;7.564;2023-03-01T02:16:15;18.73;;;15.23;;
4646;SDS011;2336;47.822;7.564;2023-03-01T02:18:43;18.88;;;15.63;;
4646;SDS011;2336;47.822;7.564;2023-03-01T02:21:13;17.70;;;14.73;;
4646;SDS011;2336;47.822;7.564;2023-03-01T02:23:51;16.55;;;13.95;;
4646;SDS011;2336;47.822;7.564;2023-03-01T02:26:23;16.42;;;14.00;;
4646;SDS011;2336;47.822;7.564;2023-03-01T02:28:55;16.27;;;14.15;;
4646;SDS011;2336;47.822;7.564;2023-03-01T02:31:22;16.25;;;14.55;;
4646;SDS011;2336;47.822;7.564;2023-03-01T02:34:06;18.15;;;14.43;;
4646;SDS011;2336;47.822;7.564;2023-03-01T02:36:35;23.92;;;15.90;;
4646;SDS011;2336;47.822;7.564;2023-03-01T02:39:04;18.20;;;14.82;;
4646;SDS011;2336;47.822;7.564;2023-03-01T02:41:39;19.17;;;14.98;;
4646;SDS011;2336;47.822;7.564;2023-03-01T02:44:10;16.73;;;14.88;;
4646;SDS011;2336;47.822;7.564;2023-03-01T02:46:42;18.33;;;16.30;;
4646;SDS011;2336;47.822;7.564;2023-03-01T02:49:20;20.42;;;14.75;;
4646;SDS011;2336;47.822;7.564;2023-03-01T02:52:06;20.65;;;17.38;;
4646;SDS011;2336;47.822;7.564;2023-03-01T02:54:48;20.80;;;16.70;;
4646;SDS011;2336;47.822;7.564;2023-03-01T02:57:20;18.60;;;15.50;;
4646;SDS011;2336;47.822;7.564;2023-03-01T02:59:49;21.55;;;16.65;;
4646;SDS011;2336;47.822;7.564;2023-03-01T03:02:21;21.83;;;18.10;;
4646;SDS011;2336;47.822;7.564;2023-03-01T03:05:01;20.10;;;16.88;;
4646;SDS011;2336;47.822;7.564;2023-03-01T03:07:31;21.27;;;16.63;;
4646;SDS011;2336;47.822;7.564;2023-03-01T03:09:58;24.38;;;15.00;;
4646;SDS011;2336;47.822;7.564;2023-03-01T03:12:25;19.88;;;15.27;;
4646;SDS011;2336;47.822;7.564;2023-03-01T03:14:53;18.40;;;15.18;;
4646;SDS011;2336;47.822;7.564;2023-03-01T03:17:19;17.52;;;15.18;;
4646;SDS011;2336;47.822;7.564;2023-03-01T03:19:46;18.20;;;15.00;;
4646;SDS011;2336;47.822;7.564;2023-03-01T03:22:13;18.83;;;15.43;;
4646;SDS011;2336;47.822;7.564;2023-03-01T03:24:40;16.95;;;14.40;;
4646;SDS011;2336;47.822;7.564;2023-03-01T03:27:06;15.88;;;14.18;;
4646;SDS011;2336;47.822;7.564;2023-03-01T03:29:33;18.30;;;15.25;;
4646;SDS011;2336;47.822;7.564;2023-03-01T03:32:02;19.42;;;14.68;;
4646;SDS011;2336;47.822;7.564;2023-03-01T03:34:29;15.95;;;14.30;;
4646;SDS011;2336;47.822;7.564;2023-03-01T03:36:56;16.30;;;14.05;;
4646;SDS011;2336;47.822;7.564;2023-03-01T03:39:24;15.90;;;14.13;;
4646;SDS011;2336;47.822;7.564;2023-03-01T03:41:52;17.73;;;14.57;;
4646;SDS011;2336;47.822;7.564;2023-03-01T03:44:19;18.90;;;14.63;;
4646;SDS011;2336;47.822;7.564;2023-03-01T03:46:45;16.63;;;13.52;;
4646;SDS011;2336;47.822;7.564;2023-03-01T03:49:13;19.58;;;14.32;;
4646;SDS011;2336;47.822;7.564;2023-03-01T03:51:40;16.17;;;14.35;;
4646;SDS011;2336;47.822;7.564;2023-03-01T03:54:07;16.48;;;14.02;;
4646;SDS011;2336;47.822;7.564;2023-03-01T03:56:34;17.27;;;14.68;;
4646;SDS011;2336;47.822;7.564;2023-03-01T03:59:00;18.88;;;15.23;;
4646;SDS011;2336;47.822;7.564;2023-03-01T04:01:27;17.17;;;14.45;;
4646;SDS011;2336;47.822;7.564;2023-03-01T04:03:54;19.40;;;16.23;;
4646;SDS011;2336;47.822;7.564;2023-03-01T04:06:22;19.50;;;15.48;;
4646;SDS011;2336;47.822;7.564;2023-03-01T04:08:48;18.08;;;15.00;;
4646;SDS011;2336;47.822;7.564;2023-03-01T04:11:16;18.48;;;15.80;;
4646;SDS011;2336;47.822;7.564;2023-03-01T04:13:56;17.13;;;15.00;;
4646;SDS011;2336;47.822;7.564;2023-03-01T04:16:25;17.88;;;13.80;;
4646;SDS011;2336;47.822;7.564;2023-03-01T04:18:52;20.20;;;15.43;;
4646;SDS011;2336;47.822;7.564;2023-03-01T04:21:19;16.27;;;14.25;;
4646;SDS011;2336;47.822;7.564;2023-03-01T04:23:47;16.02;;;14.25;;
4646;SDS011;2336;47.822;7.564;2023-03-01T04:26:17;17.05;;;14.75;;
4646;SDS011;2336;47.822;7.564;2023-03-01T04:28:44;19.10;;;15.32;;
4646;SDS011;2336;47.822;7.564;2023-03-01T04:31:13;18.77;;;14.95;;
4646;SDS011;2336;47.822;7.564;2023-03-01T04:33:42;17.92;;;15.20;;
4646;SDS011;2336;47.822;7.564;2023-03-01T04:36:11;18.27;;;14.80;;
4646;SDS011;2336;47.822;7.564;2023-03-01T04:38:40;16.17;;;14.30;;
4646;SDS011;2336;47.822;7.564;2023-03-01T04:41:08;17.88;;;15.02;;
4646;SDS011;2336;47.822;7.564;2023-03-01T04:43:36;19.00;;;15.37;;
4646;SDS011;2336;47.822;7.564;2023-03-01T04:46:04;17.52;;;15.45;;
4646;SDS011;2336;47.822;7.564;2023-03-01T04:48:34;19.25;;;15.75;;
4646;SDS011;2336;47.822;7.564;2023-03-01T04:51:01;19.08;;;14.77;;
4646;SDS011;2336;47.822;7.564;2023-03-01T04:53:28;16.17;;;14.48;;
4646;SDS011;2336;47.822;7.564;2023-03-01T04:55:56;16.42;;;14.30;;
4646;SDS011;2336;47.822;7.564;2023-03-01T04:58:23;15.95;;;14.20;;
4646;SDS011;2336;47.822;7.564;2023-03-01T05:00:52;17.33;;;14.50;;
4646;SDS011;2336;47.822;7.564;2023-03-01T05:03:19;20.10;;;14.70;;
4646;SDS011;2336;47.822;7.564;2023-03-01T05:05:47;15.98;;;13.45;;
4646;SDS011;2336;47.822;7.564;2023-03-01T05:08:15;17.25;;;14.68;;
4646;SDS011;2336;47.822;7.564;2023-03-01T05:10:43;17.48;;;13.50;;
4646;SDS011;2336;47.822;7.564;2023-03-01T05:13:13;20.15;;;15.38;;
4646;SDS011;2336;47.822;7.564;2023-03-01T05:15:45;17.60;;;15.10;;
4646;SDS011;2336;47.822;7.564;2023-03-01T05:18:13;18.23;;;14.23;;
4646;SDS011;2336;47.822;7.564;2023-03-01T05:20:39;17.67;;;14.02;;
4646;SDS011;2336;47.822;7.564;2023-03-01T05:23:06;17.45;;;14.50;;
4646;SDS011;2336;47.822;7.564;2023-03-01T05:25:33;15.63;;;13.60;;
4646;SDS011;2336;47.822;7.564;2023-03-01T05:28:05;17.45;;;13.85;;
4646;SDS011;2336;47.822;7.564;2023-03-01T05:30:35;19.00;;;14.73;;
4646;SDS011;2336;47.822;7.564;2023-03-01T05:33:04;18.83;;;14.02;;
4646;SDS011;2336;47.822;7.564;2023-03-01T05:35:38;18.25;;;14.40;;
4646;SDS011;2336;47.822;7.564;2023-03-01T05:38:05;19.83;;;14.07;;
4646;SDS011;2336;47.822;7.564;2023-03-01T05:40:32;22.40;;;16.00;;
4646;SDS011;2336;47.822;7.564;2023-03-01T05:42:59;17.45;;;14.15;;
4646;SDS011;2336;47.822;7.564;2023-03-01T05:45:27;17.30;;;14.55;;
4646;SDS011;2336;47.822;7.564;2023-03-01T05:47:55;16.42;;;14.13;;
4646;SDS011;2336;47.822;7.564;2023-03-01T05:50:23;17.88;;;14.30;;
4646;SDS011;2336;47.822;7.564;2023-03-01T05:52:52;14.75;;;13.18;;
4646;SDS011;2336;47.822;7.564;2023-03-01T05:55:23;21.70;;;15.40;;
4646;SDS011;2336;47.822;7.564;2023-03-01T05:57:50;17.95;;;14.30;;
4646;SDS011;2336;47.822;7.564;2023-03-01T06:00:18;18.88;;;15.43;;
4646;SDS011;2336;47.822;7.564;2023-03-01T06:02:47;19.35;;;15.15;;
4646;SDS011;2336;47.822;7.564;2023-03-01T06:05:15;19.35;;;14.32;;
4646;SDS011;2336;47.822;7.564;2023-03-01T06:07:42;19.05;;;15.02;;
4646;SDS011;2336;47.822;7.564;2023-03-01T06:10:09;16.70;;;14.10;;
4646;SDS011;2336;47.822;7.564;2023-03-01T06:12:38;18.65;;;15.32;;
4646;SDS011;2336;47.822;7.564;2023-03-01T06:15:06;19.25;;;14.90;;
4646;SDS011;2336;47.822;7.564;2023-03-01T06:17:35;21.70;;;16.08;;
4646;SDS011;2336;47.822;7.564;2023-03-01T06:20:03;19.23;;;15.73;;
4646;SDS011;2336;47.822;7.564;2023-03-01T06:22:33;19.95;;;16.30;;
4646;SDS011;2336;47.822;7.564;2023-03-01T06:25:00;20.15;;;16.35;;
4646;SDS011;2336;47.822;7.564;2023-03-01T06:27:27;28.00;;;20.38;;
4646;SDS011;2336;47.822;7.564;2023-03-01T06:29:53;26.67;;;20.48;;
4646;SDS011;2336;47.822;7.564;2023-03-01T06:32:20;25.58;;;19.17;;
4646;SDS011;2336;47.822;7.564;2023-03-01T06:34:47;32.28;;;24.08;;
4646;SDS011;2336;47.822;7.564;2023-03-01T06:37:13;30.50;;;22.02;;
4646;SDS011;2336;47.822;7.564;2023-03-01T06:39:41;24.58;;;20.15;;
4646;SDS011;2336;47.822;7.564;2023-03-01T06:42:08;21.92;;;18.55;;
4646;SDS011;2336;47.822;7.564;2023-03-01T06:44:36;22.48;;;17.13;;
4646;SDS011;2336;47.822;7.564;2023-03-01T06:47:02;24.52;;;18.33;;
4646;SDS011;2336;47.822;7.564;2023-03-01T06:49:29;21.80;;;17.38;;
4646;SDS011;2336;47.822;7.564;2023-03-01T06:51:56;20.95;;;16.92;;
4646;SDS011;2336;47.822;7.564;2023-03-01T06:54:23;21.15;;;16.42;;
4646;SDS011;2336;47.822;7.564;2023-03-01T06:56:51;21.88;;;17.27;;
4646;SDS011;2336;47.822;7.564;2023-03-01T06:59:18;21.10;;;16.70;;
4646;SDS011;2336;47.822;7.564;2023-03-01T07:01:45;21.98;;;18.20;;
4646;SDS011;2336;47.822;7.564;2023-03-01T07:04:12;20.52;;;17.15;;
4646;SDS011;2336;47.822;7.564;2023-03-01T07:06:39;20.52;;;17.45;;
4646;SDS011;2336;47.822;7.564;2023-03-01T07:09:06;23.27;;;17.27;;
4646;SDS011;2336;47.822;7.564;2023-03-01T07:11:33;19.67;;;17.05;;
4646;SDS011;2336;47.822;7.564;2023-03-01T07:14:01;24.50;;;16.95;;
4646;SDS011;2336;47.822;7.564;2023-03-01T07:16:28;20.73;;;16.52;;
4646;SDS011;2336;47.822;7.564;2023-03-01T07:18:54;23.30;;;18.65;;
4646;SDS011;2336;47.822;7.564;2023-03-01T07:21:21;21.77;;;19.02;;
4646;SDS011;2336;47.822;7.564;2023-03-01T07:23:48;21.58;;;18.40;;
4646;SDS011;2336;47.822;7.564;2023-03-01T07:26:15;24.63;;;18.88;;
4646;SDS011;2336;47.822;7.564;2023-03-01T07:28:41;25.70;;;18.23;;
4646;SDS011;2336;47.822;7.564;2023-03-01T07:31:09;24.58;;;18.25;;
4646;SDS011;2336;47.822;7.564;2023-03-01T07:33:36;24.27;;;19.08;;
4646;SDS011;2336;47.822;7.564;2023-03-01T07:36:03;24.05;;;19.17;;
4646;SDS011;2336;47.822;7.564;2023-03-01T07:38:31;23.77;;;19.55;;
4646;SDS011;2336;47.822;7.564;2023-03-01T07:40:58;21.87;;;17.40;;
4646;SDS011;2336;47.822;7.564;2023-03-01T07:43:26;19.70;;;16.70;;
4646;SDS011;2336;47.822;7.564;2023-03-01T07:45:53;20.23;;;17.08;;
4646;SDS011;2336;47.822;7.564;2023-03-01T07:48:21;19.00;;;16.73;;
4646;SDS011;2336;47.822;7.564;2023-03-01T07:50:47;19.35;;;16.63;;
4646;SDS011;2336;47.822;7.564;2023-03-01T07:53:14;24.83;;;18.02;;
4646;SDS011;2336;47.822;7.564;2023-03-01T07:55:41;31.38;;;17.88;;
4646;SDS011;2336;47.822;7.564;2023-03-01T07:58:08;24.42;;;18.25;;
4646;SDS011;2336;47.822;7.564;2023-03-01T08:00:34;21.80;;;17.60;;
4646;SDS011;2336;47.822;7.564;2023-03-01T08:03:01;27.85;;;17.10;;
4646;SDS011;2336;47.822;7.564;2023-03-01T08:05:29;22.30;;;16.73;;
4646;SDS011;2336;47.822;7.564;2023-03-01T08:07:56;22.35;;;16.48;;
4646;SDS011;2336;47.822;7.564;2023-03-01T08:10:22;22.67;;;17.52;;
4646;SDS011;2336;47.822;7.564;2023-03-01T08:12:50;19.50;;;15.43;;
4646;SDS011;2336;47.822;7.564;2023-03-01T08:15:18;21.50;;;17.50;;
4646;SDS011;2336;47.822;7.564;2023-03-01T08:17:44;21.40;;;16.63;;
4646;SDS011;2336;47.822;7.564;2023-03-01T08:20:11;21.40;;;15.73;;
4646;SDS011;2336;47.822;7.564;2023-03-01T08:22:39;19.17;;;16.73;;
4646;SDS011;2336;47.822;7.564;2023-03-01T08:25:06;22.30;;;17.60;;
4646;SDS011;2336;47.822;7.564;2023-03-01T08:27:33;20.60;;;18.00;;
4646;SDS011;2336;47.822;7.564;2023-03-01T08:30:00;23.87;;;18.80;;
4646;SDS011;2336;47.822;7.564;2023-03-01T08:32:27;22.10;;;18.83;;
4646;SDS011;2336;47.822;7.564;2023-03-01T08:34:54;22.20;;;16.70;;
4646;SDS011;2336;47.822;7.564;2023-03-01T08:37:20;21.60;;;17.20;;
4646;SDS011;2336;47.822;7.564;2023-03-01T08:39:48;19.77;;;16.20;;
4646;SDS011;2336;47.822;7.564;2023-03-01T08:42:15;21.30;;;17.33;;
4646;SDS011;2336;47.822;7.564;2023-03-01T08:44:42;18.70;;;16.70;;
4646;SDS011;2336;47.822;7.564;2023-03-01T08:47:08;19.20;;;16.57;;
4646;SDS011;2336;47.822;7.564;2023-03-01T08:49:35;17.80;;;14.90;;
4646;SDS011;2336;47.822;7.564;2023-03-01T08:52:02;17.07;;;14.70;;
4646;SDS011;2336;47.822;7.564;2023-03-01T08:54:28;17.90;;;15.50;;
4646;SDS011;2336;47.822;7.564;2023-03-01T08:56:57;18.40;;;15.70;;
4646;SDS011;2336;47.822;7.564;2023-03-01T08:59:25;18.53;;;15.57;;
4646;SDS011;2336;47.822;7.564;2023-03-01T09:01:52;18.80;;;16.20;;
4646;SDS011;2336;47.822;7.564;2023-03-01T09:04:19;18.20;;;16.20;;
4646;SDS011;2336;47.822;7.564;2023-03-01T09:06:45;17.57;;;14.87;;
4646;SDS011;2336;47.822;7.564;2023-03-01T09:09:13;18.67;;;15.70;;
4646;SDS011;2336;47.822;7.564;2023-03-01T09:11:41;19.33;;;16.17;;
4646;SDS011;2336;47.822;7.564;2023-03-01T09:14:12;17.67;;;15.80;;
4646;SDS011;2336;47.822;7.564;2023-03-01T09:16:39;24.07;;;18.07;;
4646;SDS011;2336;47.822;7.564;2023-03-01T09:19:06;20.60;;;16.23;;
4646;SDS011;2336;47.822;7.564;2023-03-01T09:21:33;18.77;;;15.97;;
4646;SDS011;2336;47.822;7.564;2023-03-01T09:23:59;20.57;;;18.30;;
4646;SDS011;2336;47.822;7.564;2023-03-01T09:26:26;22.23;;;16.60;;
4646;SDS011;2336;47.822;7.564;2023-03-01T09:28:54;16.93;;;15.13;;
4646;SDS011;2336;47.822;7.564;2023-03-01T09:31:23;20.27;;;17.77;;
4646;SDS011;2336;47.822;7.564;2023-03-01T09:33:51;23.03;;;19.57;;
4646;SDS011;2336;47.822;7.564;2023-03-01T09:36:19;21.90;;;17.73;;
4646;SDS011;2336;47.822;7.564;2023-03-01T09:38:48;20.77;;;15.37;;
4646;SDS011;2336;47.822;7.564;2023-03-01T09:41:19;16.80;;;15.00;;
4646;SDS011;2336;47.822;7.564;2023-03-01T09:43:57;17.43;;;15.23;;
4646;SDS011;2336;47.822;7.564;2023-03-01T09:46:30;18.77;;;16.13;;
4646;SDS011;2336;47.822;7.564;2023-03-01T09:49:05;22.77;;;20.37;;
4646;SDS011;2336;47.822;7.564;2023-03-01T09:51:36;20.40;;;18.33;;
4646;SDS011;2336;47.822;7.564;2023-03-01T09:54:04;19.07;;;15.60;;
4646;SDS011;2336;47.822;7.564;2023-03-01T09:56:33;22.20;;;19.10;;
4646;SDS011;2336;47.822;7.564;2023-03-01T09:59:06;18.60;;;16.50;;
4646;SDS011;2336;47.822;7.564;2023-03-01T10:01:46;17.63;;;15.77;;
4646;SDS011;2336;47.822;7.564;2023-03-01T10:04:26;17.83;;;16.00;;
4646;SDS011;2336;47.822;7.564;2023-03-01T10:07:01;17.50;;;15.70;;
4646;SDS011;2336;47.822;7.564;2023-03-01T10:09:42;18.77;;;16.73;;
4646;SDS011;2336;47.822;7.564;2023-03-01T10:12:11;23.03;;;20.20;;
4646;SDS011;2336;47.822;7.564;2023-03-01T10:14:43;20.47;;;18.33;;
4646;SDS011;2336;47.822;7.564;2023-03-01T10:17:26;18.10;;;16.20;;
4646;SDS011;2336;47.822;7.564;2023-03-01T10:19:58;19.23;;;17.03;;
4646;SDS011;2336;47.822;7.564;2023-03-01T10:22:41;17.07;;;15.27;;
4646;SDS011;2336;47.822;7.564;2023-03-01T10:25:12;38.23;;;31.87;;
4646;SDS011;2336;47.822;7.564;2023-03-01T10:27:42;29.93;;;25.83;;
4646;SDS011;2336;47.822;7.564;2023-03-01T10:30:17;18.60;;;16.60;;
4646;SDS011;2336;47.822;7.564;2023-03-01T10:32:48;26.07;;;22.40;;
4646;SDS011;2336;47.822;7.564;2023-03-01T10:35:19;21.90;;;18.43;;
4646;SDS011;2336;47.822;7.564;2023-03-01T10:37:56;19.27;;;16.63;;
4646;SDS011;2336;47.822;7.564;2023-03-01T10:40:24;21.60;;;18.97;;
4646;SDS011;2336;47.822;7.564;2023-03-01T10:42:51;19.83;;;17.00;;
4646;SDS011;2336;47.822;7.564;2023-03-01T10:45:26;19.90;;;17.90;;
4646;SDS011;2336;47.822;7.564;2023-03-01T10:48:04;30.47;;;26.97;;
4646;SDS011;2336;47.822;7.564;2023-03-01T10:50:36;18.87;;;16.43;;
4646;SDS011;2336;47.822;7.564;2023-03-01T10:53:05;18.10;;;15.83;;
4646;SDS011;2336;47.822;7.564;2023-03-01T10:55:48;20.20;;;17.27;;
4646;SDS011;2336;47.822;7.564;2023-03-01T10:58:23;19.73;;;17.20;;
4646;SDS011;2336;47.822;7.564;2023-03-01T11:00:50;21.60;;;15.93;;
4646;SDS011;2336;47.822;7.564;2023-03-01T11:03:20;18.77;;;16.43;;
4646;SDS011;2336;47.822;7.564;2023-03-01T11:05:50;20.53;;;17.50;;
4646;SDS011;2336;47.822;7.564;2023-03-01T11:08:38;24.33;;;16.77;;
4646;SDS011;2336;47.822;7.564;2023-03-01T11:13:57;18.00;;;16.10;;
4646;SDS011;2336;47.822;7.564;2023-03-01T11:16:27;20.47;;;17.40;;
4646;SDS011;2336;47.822;7.564;2023-03-01T11:19:00;21.83;;;19.60;;
4646;SDS011;2336;47.822;7.564;2023-03-01T11:21:31;27.90;;;22.73;;
4646;SDS011;2336;47.822;7.564;2023-03-01T11:24:00;20.50;;;17.80;;
4646;SDS011;2336;47.822;7.564;2023-03-01T11:26:29;19.10;;;16.80;;
4646;SDS011;2336;47.822;7.564;2023-03-01T11:29:00;20.33;;;18.03;;
4646;SDS011;2336;47.822;7.564;2023-03-01T11:31:31;20.57;;;16.83;;
4646;SDS011;2336;47.822;7.564;2023-03-01T11:34:02;21.07;;;17.83;;
4646;SDS011;2336;47.822;7.564;2023-03-01T11:36:34;19.50;;;17.33;;
4646;SDS011;2336;47.822;7.564;2023-03-01T11:39:12;21.27;;;17.17;;
4646;SDS011;2336;47.822;7.564;2023-03-01T11:41:46;21.20;;;17.33;;
4646;SDS011;2336;47.822;7.564;2023-03-01T11:44:17;20.23;;;18.03;;
4646;SDS011;2336;47.822;7.564;2023-03-01T11:46:59;22.47;;;19.33;;
4646;SDS011;2336;47.822;7.564;2023-03-01T11:49:49;18.17;;;15.60;;
4646;SDS011;2336;47.822;7.564;2023-03-01T11:52:35;20.30;;;18.10;;
4646;SDS011;2336;47.822;7.564;2023-03-01T11:55:17;19.23;;;17.20;;
4646;SDS011;2336;47.822;7.564;2023-03-01T11:57:59;19.77;;;16.30;;
4646;SDS011;2336;47.822;7.564;2023-03-01T12:00:52;21.87;;;19.27;;
4646;SDS011;2336;47.822;7.564;2023-03-01T12:03:38;19.80;;;17.70;;
4646;SDS011;2336;47.822;7.564;2023-03-01T12:06:24;27.90;;;17.70;;
4646;SDS011;2336;47.822;7.564;2023-03-01T12:09:05;21.43;;;17.57;;
4646;SDS011;2336;47.822;7.564;2023-03-01T12:11:43;20.90;;;16.40;;
4646;SDS011;2336;47.822;7.564;2023-03-01T12:14:28;21.03;;;18.87;;
4646;SDS011;2336;47.822;7.564;2023-03-01T12:20:18;20.43;;;17.80;;
4646;SDS011;2336;47.822;7.564;2023-03-01T12:22:57;18.50;;;16.50;;
4646;SDS011;2336;47.822;7.564;2023-03-01T12:25:45;27.00;;;20.20;;
4646;SDS011;2336;47.822;7.564;2023-03-01T12:28:22;22.60;;;16.73;;
4646;SDS011;2336;47.822;7.564;2023-03-01T12:31:25;18.53;;;16.67;;
4646;SDS011;2336;47.822;7.564;2023-03-01T12:34:09;21.10;;;18.23;;
4646;SDS011;2336;47.822;7.564;2023-03-01T12:37:00;23.07;;;19.97;;
4646;SDS011;2336;47.822;7.564;2023-03-01T12:39:41;18.37;;;16.47;;
4646;SDS011;2336;47.822;7.564;2023-03-01T12:42:19;19.50;;;17.37;;
4646;SDS011;2336;47.822;7.564;2023-03-01T12:45:01;19.17;;;16.87;;
4646;SDS011;2336;47.822;7.564;2023-03-01T12:47:48;42.73;;;28.13;;
4646;SDS011;2336;47.822;7.564;2023-03-01T12:50:25;23.47;;;20.37;;
4646;SDS011;2336;47.822;7.564;2023-03-01T12:53:05;19.00;;;17.00;;
4646;SDS011;2336;47.822;7.564;2023-03-01T12:55:42;19.70;;;17.50;;
4646;SDS011;2336;47.822;7.564;2023-03-01T12:58:13;20.93;;;18.40;;
4646;SDS011;2336;47.822;7.564;2023-03-01T13:00:53;23.17;;;19.87;;
4646;SDS011;2336;47.822;7.564;2023-03-01T13:03:31;20.40;;;18.30;;
4646;SDS011;2336;47.822;7.564;2023-03-01T13:06:12;23.20;;;19.70;;
4646;SDS011;2336;47.822;7.564;2023-03-01T13:08:47;23.33;;;19.27;;
4646;SDS011;2336;47.822;7.564;2023-03-01T13:11:21;23.10;;;18.83;;
4646;SDS011;2336;47.822;7.564;2023-03-01T13:13:49;20.17;;;17.80;;
4646;SDS011;2336;47.822;7.564;2023-03-01T13:16:20;19.17;;;17.10;;
4646;SDS011;2336;47.822;7.564;2023-03-01T13:19:08;20.50;;;18.23;;
4646;SDS011;2336;47.822;7.564;2023-03-01T13:21:39;22.87;;;18.90;;
4646;SDS011;2336;47.822;7.564;2023-03-01T13:27:19;24.23;;;18.83;;
4646;SDS011;2336;47.822;7.564;2023-03-01T13:29:54;21.27;;;18.47;;
4646;SDS011;2336;47.822;7.564;2023-03-01T13:32:25;24.77;;;19.83;;
4646;SDS011;2336;47.822;7.564;2023-03-01T13:34:55;24.63;;;20.43;;
4646;SDS011;2336;47.822;7.564;2023-03-01T13:37:23;32.10;;;20.60;;
4646;SDS011;2336;47.822;7.564;2023-03-01T13:39:56;22.03;;;19.63;;
4646;SDS011;2336;47.822;7.564;2023-03-01T13:45:15;21.50;;;18.50;;
4646;SDS011;2336;47.822;7.564;2023-03-01T13:47:46;19.67;;;17.57;;
4646;SDS011;2336;47.822;7.564;2023-03-01T13:50:18;23.50;;;18.93;;
4646;SDS011;2336;47.822;7.564;2023-03-01T13:52:50;20.63;;;18.47;;
4646;SDS011;2336;47.822;7.564;2023-03-01T13:55:23;19.73;;;17.63;;
4646;SDS011;2336;47.822;7.564;2023-03-01T13:57:54;21.20;;;17.70;;
4646;SDS011;2336;47.822;7.564;2023-03-01T14:00:35;21.17;;;18.23;;
4646;SDS011;2336;47.822;7.564;2023-03-01T14:03:05;21.53;;;17.93;;
4646;SDS011;2336;47.822;7.564;2023-03-01T14:05:36;24.43;;;19.73;;
4646;SDS011;2336;47.822;7.564;2023-03-01T14:08:04;22.80;;;19.13;;
4646;SDS011;2336;47.822;7.564;2023-03-01T14:10:44;21.57;;;19.27;;
4646;SDS011;2336;47.822;7.564;2023-03-01T14:13:25;21.53;;;19.20;;
4646;SDS011;2336;47.822;7.564;2023-03-01T14:16:08;21.63;;;17.60;;
4646;SDS011;2336;47.822;7.564;2023-03-01T14:18:46;20.07;;;17.93;;
4646;SDS011;2336;47.822;7.564;2023-03-01T14:21:21;19.47;;;17.37;;
4646;SDS011;2336;47.822;7.564;2023-03-01T14:23:50;22.53;;;18.43;;
4646;SDS011;2336;47.822;7.564;2023-03-01T14:26:20;22.00;;;19.27;;
4646;SDS011;2336;47.822;7.564;2023-03-01T14:28:49;22.07;;;18.20;;
4646;SDS011;2336;47.822;7.564;2023-03-01T14:31:34;25.10;;;19.53;;
4646;SDS011;2336;47.822;7.564;2023-03-01T14:34:02;20.40;;;17.73;;
4646;SDS011;2336;47.822;7.564;2023-03-01T14:36:30;24.00;;;19.73;;
4646;SDS011;2336;47.822;7.564;2023-03-01T14:38:58;29.23;;;19.03;;
4646;SDS011;2336;47.822;7.564;2023-03-01T14:41:30;23.57;;;19.00;;
4646;SDS011;2336;47.822;7.564;2023-03-01T14:44:02;19.83;;;17.73;;
4646;SDS011;2336;47.822;7.564;2023-03-01T14:46:31;24.37;;;19.73;;
4646;SDS011;2336;47.822;7.564;2023-03-01T14:49:02;21.97;;;18.50;;
4646;SDS011;2336;47.822;7.564;2023-03-01T14:51:34;21.87;;;19.17;;
4646;SDS011;2336;47.822;7.564;2023-03-01T14:54:03;20.50;;;17.50;;
4646;SDS011;2336;47.822;7.564;2023-03-01T14:56:43;22.00;;;18.13;;
4646;SDS011;2336;47.822;7.564;2023-03-01T14:59:12;20.87;;;18.13;;
4646;SDS011;2336;47.822;7.564;2023-03-01T15:01:40;32.10;;;22.67;;
4646;SDS011;2336;47.822;7.564;2023-03-01T15:04:11;24.10;;;19.70;;
4646;SDS011;2336;47.822;7.564;2023-03-01T15:06:39;21.63;;;17.90;;
4646;SDS011;2336;47.822;7.564;2023-03-01T15:09:07;24.50;;;19.60;;
4646;SDS011;2336;47.822;7.564;2023-03-01T15:11:41;21.97;;;18.70;;
4646;SDS011;2336;47.822;7.564;2023-03-01T15:17:04;20.90;;;18.70;;
4646;SDS011;2336;47.822;7.564;2023-03-01T15:19:31;24.30;;;19.67;;
4646;SDS011;2336;47.822;7.564;2023-03-01T15:21:57;23.53;;;20.37;;